createdAt,value
2018-08-17T00:00:14.070Z,57.20
2018-08-17T00:02:42.291Z,57.10
2018-08-17T00:05:10.573Z,57.10
2018-08-17T00:07:38.774Z,57.00
2018-08-17T00:10:07.045Z,57.10
2018-08-17T00:12:35.258Z,57.30
2018-08-17T00:15:03.595Z,57.40
2018-08-17T00:17:31.845Z,57.50
2018-08-17T00:20:00.129Z,57.60
2018-08-17T00:22:28.393Z,57.50
2018-08-17T00:24:56.625Z,57.50
2018-08-17T00:27:24.846Z,57.70
2018-08-17T00:29:53.092Z,57.80
2018-08-17T00:32:21.305Z,57.80
2018-08-17T00:34:49.896Z,57.80
2018-08-17T00:37:18.340Z,57.80
2018-08-17T00:39:46.542Z,57.80
2018-08-17T00:42:14.778Z,57.90
2018-08-17T00:44:42.992Z,57.90
2018-08-17T00:47:11.284Z,57.90
2018-08-17T00:49:39.570Z,58.00
2018-08-17T00:52:07.801Z,57.40
2018-08-17T00:54:36.020Z,57.80
2018-08-17T00:57:04.290Z,57.80
2018-08-17T00:59:32.529Z,57.80
2018-08-17T01:02:00.811Z,58.00
2018-08-17T01:04:29.031Z,58.00
2018-08-17T01:06:57.300Z,58.00
2018-08-17T01:09:25.542Z,58.10
2018-08-17T01:11:53.792Z,58.00
2018-08-17T01:14:22.051Z,57.90
2018-08-17T01:16:50.282Z,57.90
2018-08-17T01:19:18.486Z,57.90
2018-08-17T01:21:46.720Z,58.00
2018-08-17T01:24:14.936Z,58.00
2018-08-17T01:26:43.237Z,58.20
2018-08-17T01:29:11.671Z,58.30
2018-08-17T01:31:39.893Z,58.50
2018-08-17T01:34:09.133Z,58.60
2018-08-17T01:36:37.415Z,58.90
2018-08-17T01:39:07.586Z,59.10
2018-08-17T01:41:35.822Z,59.40
2018-08-17T01:44:04.189Z,59.40
2018-08-17T01:46:32.450Z,59.60
2018-08-17T01:49:00.667Z,60.20
2018-08-17T01:51:28.902Z,59.60
2018-08-17T01:53:57.131Z,59.60
2018-08-17T01:56:25.374Z,59.60
2018-08-17T01:58:53.589Z,59.70
2018-08-17T02:01:21.800Z,59.70
2018-08-17T02:03:50.037Z,59.80
2018-08-17T02:06:18.260Z,59.60
2018-08-17T02:08:46.634Z,59.60
2018-08-17T02:11:14.866Z,59.70
2018-08-17T02:13:43.106Z,59.60
2018-08-17T02:16:11.362Z,59.60
2018-08-17T02:18:39.596Z,59.60
2018-08-17T02:21:07.860Z,59.70
2018-08-17T02:23:36.140Z,59.60
2018-08-17T02:26:04.380Z,59.60
2018-08-17T02:28:32.586Z,59.60
2018-08-17T02:31:00.800Z,59.60
2018-08-17T02:33:29.033Z,59.60
2018-08-17T02:35:57.337Z,59.70
2018-08-17T02:38:25.558Z,59.80
2018-08-17T02:40:53.777Z,59.80
2018-08-17T02:43:22.003Z,59.90
2018-08-17T02:45:50.218Z,59.90
2018-08-17T02:48:18.469Z,60.00
2018-08-17T02:50:46.732Z,59.90
2018-08-17T02:53:14.945Z,59.90
2018-08-17T02:55:43.158Z,59.80
2018-08-17T02:58:11.422Z,59.70
2018-08-17T03:00:39.694Z,59.70
2018-08-17T03:03:07.921Z,59.90
2018-08-17T03:05:36.289Z,60.00
2018-08-17T03:08:04.609Z,60.00
2018-08-17T03:10:32.840Z,60.00
2018-08-17T03:13:01.305Z,60.10
2018-08-17T03:15:29.538Z,60.10
2018-08-17T03:17:58.485Z,60.00
2018-08-17T03:20:26.694Z,59.90
2018-08-17T03:22:54.920Z,60.00
2018-08-17T03:25:23.125Z,60.10
2018-08-17T03:27:51.379Z,60.20
2018-08-17T03:30:19.633Z,60.30
2018-08-17T03:32:47.906Z,60.20
2018-08-17T03:35:16.131Z,60.30
2018-08-17T03:37:44.387Z,60.40
2018-08-17T03:40:12.567Z,60.40
2018-08-17T03:42:40.892Z,60.40
2018-08-17T03:45:09.134Z,60.50
2018-08-17T03:47:37.345Z,60.50
2018-08-17T03:50:06.098Z,60.50
2018-08-17T03:52:34.322Z,60.60
2018-08-17T03:55:02.821Z,60.70
2018-08-17T03:57:31.095Z,60.80
2018-08-17T03:59:59.320Z,60.90
2018-08-17T04:02:27.525Z,60.90
2018-08-17T04:04:55.760Z,61.00
2018-08-17T04:07:24.025Z,60.90
2018-08-17T04:09:52.266Z,60.90
2018-08-17T04:12:20.496Z,60.90
2018-08-17T04:14:48.738Z,60.80
2018-08-17T04:17:16.944Z,60.90
2018-08-17T04:19:45.168Z,60.90
2018-08-17T04:22:13.445Z,61.00
2018-08-17T04:24:41.681Z,61.10
2018-08-17T04:27:09.893Z,61.20
2018-08-17T04:29:38.131Z,61.30
2018-08-17T04:32:06.596Z,61.40
2018-08-17T04:34:34.857Z,61.40
2018-08-17T04:37:03.065Z,61.40
2018-08-17T04:39:31.284Z,61.20
2018-08-17T04:41:59.511Z,61.10
2018-08-17T04:44:27.748Z,61.20
2018-08-17T04:46:56.010Z,61.20
2018-08-17T04:49:24.373Z,61.20
2018-08-17T04:51:52.554Z,61.30
2018-08-17T04:54:20.758Z,61.30
2018-08-17T04:56:48.977Z,61.30
2018-08-17T04:59:17.220Z,61.30
2018-08-17T05:01:45.465Z,61.40
2018-08-17T05:04:13.750Z,61.40
2018-08-17T05:06:42.042Z,61.50
2018-08-17T05:09:10.266Z,61.60
2018-08-17T05:11:38.509Z,61.50
2018-08-17T05:14:06.758Z,61.60
2018-08-17T05:16:34.986Z,61.50
2018-08-17T05:19:03.192Z,61.50
2018-08-17T05:21:31.479Z,61.50
2018-08-17T05:23:59.652Z,61.40
2018-08-17T05:26:27.927Z,61.40
2018-08-17T05:28:56.151Z,61.30
2018-08-17T05:31:24.401Z,61.30
2018-08-17T05:33:52.722Z,61.10
2018-08-17T05:36:20.922Z,61.00
2018-08-17T05:38:49.188Z,61.00
2018-08-17T05:41:17.608Z,60.90
2018-08-17T05:43:46.031Z,60.90
2018-08-17T05:46:14.371Z,60.90
2018-08-17T05:48:42.893Z,60.80
2018-08-17T05:51:11.239Z,60.80
2018-08-17T05:53:39.552Z,60.70
2018-08-17T05:56:07.885Z,60.50
2018-08-17T05:58:36.276Z,60.40
2018-08-17T06:01:04.575Z,60.30
2018-08-17T06:03:33.022Z,60.40
2018-08-17T06:06:01.394Z,60.40
2018-08-17T06:08:29.791Z,60.20
2018-08-17T06:10:58.090Z,60.10
2018-08-17T06:13:26.505Z,60.00
2018-08-17T06:15:54.791Z,59.90
2018-08-17T06:18:23.265Z,60.00
2018-08-17T06:20:51.601Z,59.90
2018-08-17T06:23:19.953Z,60.00
2018-08-17T06:25:48.455Z,59.90
2018-08-17T06:28:17.525Z,59.70
2018-08-17T06:30:45.944Z,59.80
2018-08-17T06:33:14.238Z,59.60
2018-08-17T06:35:42.590Z,59.40
2018-08-17T06:38:10.908Z,59.50
2018-08-17T06:40:39.344Z,59.40
2018-08-17T06:43:07.940Z,59.10
2018-08-17T06:45:36.405Z,59.60
2018-08-17T06:48:04.969Z,58.90
2018-08-17T06:50:33.429Z,58.60
2018-08-17T06:53:01.734Z,58.50
2018-08-17T06:55:30.144Z,58.20
2018-08-17T06:57:58.454Z,58.00
2018-08-17T07:00:26.789Z,57.90
2018-08-17T07:02:55.053Z,57.70
2018-08-17T07:05:23.325Z,57.50
2018-08-17T07:07:51.622Z,57.40
2018-08-17T07:10:20.117Z,57.10
2018-08-17T07:12:48.403Z,57.00
2018-08-17T07:15:17.332Z,56.70
2018-08-17T07:17:45.781Z,56.50
2018-08-17T07:20:14.412Z,56.40
2018-08-17T07:22:43.718Z,56.20
2018-08-17T07:25:12.229Z,56.00
2018-08-17T07:27:40.760Z,55.70
2018-08-17T07:30:09.434Z,55.70
2018-08-17T07:32:37.865Z,55.50
2018-08-17T07:35:07.714Z,55.30
2018-08-17T07:37:36.164Z,55.10
2018-08-17T07:40:04.702Z,54.80
2018-08-17T07:42:33.061Z,54.40
2018-08-17T07:45:01.751Z,54.40
2018-08-17T07:47:30.158Z,54.20
2018-08-17T07:49:58.616Z,54.20
2018-08-17T07:52:27.110Z,53.80
2018-08-17T07:54:55.556Z,53.60
2018-08-17T07:57:23.944Z,53.20
2018-08-17T07:59:52.345Z,53.10
2018-08-17T08:02:20.835Z,52.90
2018-08-17T08:04:49.209Z,52.80
2018-08-17T08:07:17.737Z,52.70
2018-08-17T08:09:46.075Z,52.60
2018-08-17T08:12:17.473Z,52.90
2018-08-17T08:14:45.741Z,52.50
2018-08-17T08:17:14.090Z,52.40
2018-08-17T08:19:42.361Z,52.20
2018-08-17T08:22:10.680Z,52.00
2018-08-17T08:24:39.716Z,51.90
2018-08-17T08:27:08.398Z,51.70
2018-08-17T08:29:36.636Z,51.70
2018-08-17T08:32:04.857Z,51.50
2018-08-17T08:34:33.114Z,51.20
2018-08-17T08:37:01.516Z,51.10
2018-08-17T08:39:29.903Z,51.00
2018-08-17T08:41:58.225Z,50.70
2018-08-17T08:44:26.552Z,50.50
2018-08-17T08:46:54.909Z,50.10
2018-08-17T08:49:23.268Z,49.90
2018-08-17T08:51:51.713Z,49.80
2018-08-17T08:54:20.000Z,49.60
2018-08-17T08:56:48.282Z,49.30
2018-08-17T08:59:16.794Z,49.20
2018-08-17T09:01:45.246Z,48.70
2018-08-17T09:04:13.405Z,49.00
2018-08-17T09:06:42.622Z,49.20
2018-08-17T09:09:10.874Z,49.40
2018-08-17T09:11:39.225Z,49.50
2018-08-17T09:14:07.444Z,49.10
2018-08-17T09:16:35.670Z,49.60
2018-08-17T09:19:04.221Z,49.60
2018-08-17T09:21:32.468Z,49.60
2018-08-17T09:24:00.709Z,49.50
2018-08-17T09:26:28.943Z,49.50
2018-08-17T09:28:57.153Z,49.30
2018-08-17T09:31:25.401Z,49.30
2018-08-17T09:33:53.720Z,49.00
2018-08-17T09:36:21.940Z,48.90
2018-08-17T09:38:50.174Z,48.70
2018-08-17T09:41:18.415Z,48.60
2018-08-17T09:43:46.634Z,48.60
2018-08-17T09:46:14.824Z,48.50
2018-08-17T09:48:43.049Z,48.50
2018-08-17T09:51:11.275Z,48.60
2018-08-17T09:53:39.495Z,48.50
2018-08-17T09:56:07.709Z,48.40
2018-08-17T09:58:35.930Z,48.20
2018-08-17T10:01:10.418Z,48.20
2018-08-17T10:03:42.755Z,47.90
2018-08-17T10:06:16.399Z,47.70
2018-08-17T10:09:49.205Z,47.70
2018-08-17T10:12:17.423Z,47.40
2018-08-17T10:14:45.664Z,47.10
2018-08-17T10:17:13.894Z,47.00
2018-08-17T10:19:42.100Z,46.60
2018-08-17T10:22:10.511Z,46.20
2018-08-17T10:24:38.571Z,45.80
2018-08-17T10:27:06.858Z,45.80
2018-08-17T10:29:35.122Z,46.00
2018-08-17T10:32:03.387Z,46.00
2018-08-17T10:34:31.603Z,46.10
2018-08-17T10:36:59.841Z,46.10
2018-08-17T10:39:28.081Z,45.90
2018-08-17T10:41:56.317Z,45.80
2018-08-17T10:44:24.532Z,45.30
2018-08-17T10:46:52.758Z,44.60
2018-08-17T10:49:21.001Z,44.20
2018-08-17T10:51:49.282Z,43.80
2018-08-17T10:54:17.515Z,43.30
2018-08-17T10:56:45.725Z,42.70
2018-08-17T10:59:13.974Z,42.30
2018-08-17T11:01:43.276Z,42.10
2018-08-17T11:04:11.530Z,41.80
2018-08-17T11:06:39.968Z,41.70
2018-08-17T11:09:09.373Z,41.70
2018-08-17T11:11:38.656Z,41.80
2018-08-17T11:14:06.991Z,41.70
2018-08-17T11:16:35.216Z,41.60
2018-08-17T11:19:03.509Z,41.40
2018-08-17T11:21:31.704Z,41.20
2018-08-17T11:24:00.073Z,40.90
2018-08-17T11:26:28.278Z,40.60
2018-08-17T11:28:56.504Z,40.50
2018-08-17T11:31:24.709Z,40.30
2018-08-17T11:33:52.935Z,40.20
2018-08-17T11:36:22.886Z,40.10
2018-08-17T11:38:51.142Z,39.90
2018-08-17T11:41:19.395Z,39.70
2018-08-17T11:43:47.796Z,39.60
2018-08-17T11:46:16.013Z,40.20
2018-08-17T11:48:44.224Z,39.40
2018-08-17T11:51:12.456Z,39.20
2018-08-17T11:53:40.898Z,38.90
2018-08-17T11:56:09.749Z,38.70
2018-08-17T11:58:37.977Z,38.60
2018-08-17T12:01:11.851Z,38.50
2018-08-17T12:03:40.087Z,38.40
2018-08-17T12:06:08.315Z,38.10
2018-08-17T12:08:36.576Z,37.90
2018-08-17T12:11:07.133Z,37.90
2018-08-17T12:13:37.824Z,37.80
2018-08-17T12:16:06.614Z,37.70
2018-08-17T12:18:34.851Z,37.80
2018-08-17T12:21:03.134Z,37.70
2018-08-17T12:23:31.357Z,37.60
2018-08-17T12:25:59.588Z,37.30
2018-08-17T12:28:29.234Z,37.00
2018-08-17T12:30:58.118Z,36.80
2018-08-17T12:33:26.443Z,36.60
2018-08-17T12:35:54.912Z,36.60
2018-08-17T12:38:23.229Z,36.60
2018-08-17T12:40:53.882Z,36.60
2018-08-17T12:43:26.245Z,36.60
2018-08-17T12:45:54.638Z,36.50
2018-08-17T12:48:22.917Z,36.60
2018-08-17T12:50:51.232Z,36.70
2018-08-17T12:53:19.483Z,36.60
2018-08-17T12:55:47.747Z,36.50
2018-08-17T12:58:16.344Z,36.40
2018-08-17T13:00:44.665Z,36.30
2018-08-17T13:03:12.990Z,36.20
2018-08-17T13:05:41.292Z,36.20
2018-08-17T13:08:09.704Z,36.10
2018-08-17T13:10:38.130Z,36.20
2018-08-17T13:13:08.542Z,36.10
2018-08-17T13:15:37.377Z,36.30
2018-08-17T13:18:15.692Z,36.30
2018-08-17T13:20:44.451Z,36.20
2018-08-17T13:23:12.940Z,35.90
2018-08-17T13:25:41.733Z,35.60
2018-08-17T13:28:11.293Z,35.50
2018-08-17T13:30:39.654Z,35.40
2018-08-17T13:33:08.103Z,35.50
2018-08-17T13:35:36.486Z,35.30
2018-08-17T13:38:04.960Z,35.10
2018-08-17T13:40:33.353Z,35.00
2018-08-17T13:43:01.734Z,35.00
2018-08-17T13:45:30.216Z,35.10
2018-08-17T13:47:58.580Z,35.10
2018-08-17T13:50:26.946Z,35.10
2018-08-17T13:52:55.520Z,35.10
2018-08-17T13:55:24.044Z,35.10
2018-08-17T13:57:52.370Z,35.10
2018-08-17T14:00:20.855Z,35.20
2018-08-17T14:02:49.288Z,35.20
2018-08-17T14:05:17.788Z,35.10
2018-08-17T14:07:46.233Z,35.00
2018-08-17T14:10:14.594Z,34.80
2018-08-17T14:12:42.996Z,34.80
2018-08-17T14:15:11.357Z,34.70
2018-08-17T14:17:39.722Z,34.80
2018-08-17T14:20:12.684Z,34.90
2018-08-17T14:22:40.953Z,34.90
2018-08-17T14:25:09.802Z,34.90
2018-08-17T14:27:38.022Z,34.80
2018-08-17T14:30:10.025Z,34.70
2018-08-17T14:32:38.244Z,34.50
2018-08-17T14:35:06.631Z,34.40
2018-08-17T14:37:34.804Z,34.40
2018-08-17T14:40:03.066Z,34.30
2018-08-17T14:42:31.293Z,34.20
2018-08-17T14:44:59.538Z,34.10
2018-08-17T14:47:27.737Z,34.10
2018-08-17T14:49:56.143Z,34.00
2018-08-17T14:52:24.358Z,34.10
2018-08-17T14:54:52.857Z,34.10
2018-08-17T14:57:21.082Z,34.20
2018-08-17T14:59:49.302Z,34.30
2018-08-17T15:02:17.512Z,34.30
2018-08-17T15:04:45.746Z,34.30
2018-08-17T15:07:13.982Z,34.30
2018-08-17T15:09:42.221Z,34.30
2018-08-17T15:12:10.454Z,34.30
2018-08-17T15:14:38.693Z,34.40
2018-08-17T15:17:07.005Z,34.60
2018-08-17T15:19:35.247Z,34.70
2018-08-17T15:22:03.490Z,35.00
2018-08-17T15:24:31.710Z,35.20
2018-08-17T15:26:59.955Z,35.70
2018-08-17T15:29:28.185Z,36.80
2018-08-17T15:31:56.425Z,38.10
2018-08-17T15:34:24.652Z,39.60
2018-08-17T15:36:52.870Z,41.80
2018-08-17T15:39:21.089Z,43.00
2018-08-17T15:41:49.323Z,44.80
2018-08-17T15:44:23.677Z,46.80
2018-08-17T15:46:52.040Z,49.00
2018-08-17T15:49:30.424Z,51.80
2018-08-17T15:51:59.037Z,53.70
2018-08-17T15:54:27.218Z,54.70
2018-08-17T15:56:55.453Z,54.40
2018-08-17T15:59:23.686Z,57.20
2018-08-17T16:01:51.914Z,60.00
2018-08-17T16:04:20.180Z,63.60
2018-08-17T16:06:48.488Z,65.90
2018-08-17T16:09:16.860Z,65.90
2018-08-17T16:11:45.078Z,66.40
2018-08-17T16:14:13.301Z,68.80
2018-08-17T16:16:41.496Z,70.30
2018-08-17T16:19:09.774Z,71.10
2018-08-17T16:21:38.032Z,72.20
2018-08-17T16:24:06.669Z,73.40
2018-08-17T16:26:35.144Z,74.60
2018-08-17T16:29:03.850Z,75.50
2018-08-17T16:31:36.618Z,76.20
2018-08-17T16:34:04.885Z,76.40
2018-08-17T16:36:35.750Z,75.90
2018-08-17T16:39:06.467Z,76.00
2018-08-17T16:41:34.681Z,76.00
2018-08-17T16:44:03.138Z,76.20
2018-08-17T16:46:31.487Z,75.80
2018-08-17T16:48:59.861Z,75.70
2018-08-17T16:51:28.046Z,75.00
2018-08-17T16:53:56.293Z,74.70
2018-08-17T16:56:24.507Z,75.20
2018-08-17T16:58:52.726Z,75.60
2018-08-17T17:01:20.926Z,75.90
2018-08-17T17:03:49.189Z,75.90
2018-08-17T17:06:17.393Z,76.00
2018-08-17T17:08:45.612Z,76.10
2018-08-17T17:11:13.881Z,76.60
2018-08-17T17:13:42.625Z,77.20
2018-08-17T17:16:10.905Z,78.00
2018-08-17T17:18:39.108Z,78.50
2018-08-17T17:21:07.326Z,78.50
2018-08-17T17:23:42.514Z,78.90
2018-08-17T17:26:10.799Z,79.40
2018-08-17T17:28:39.098Z,80.20
2018-08-17T17:31:07.405Z,80.20
2018-08-17T17:33:35.569Z,80.20
2018-08-17T17:36:03.896Z,81.10
2018-08-17T17:38:32.133Z,80.80
2018-08-17T17:41:00.348Z,81.00
2018-08-17T17:43:28.550Z,81.60
2018-08-17T17:45:56.773Z,82.00
2018-08-17T17:48:24.986Z,82.20
2018-08-17T17:50:53.242Z,82.70
2018-08-17T17:53:21.450Z,83.40
2018-08-17T17:55:50.210Z,83.80
2018-08-17T17:58:19.345Z,83.70
2018-08-17T18:00:55.520Z,83.60
2018-08-17T18:03:24.142Z,83.50
2018-08-17T18:05:52.393Z,83.70
2018-08-17T18:08:20.603Z,84.00
2018-08-17T18:10:49.088Z,84.30
2018-08-17T18:13:17.340Z,84.20
2018-08-17T18:15:45.591Z,84.20
2018-08-17T18:18:13.826Z,83.60
2018-08-17T18:20:42.089Z,82.40
2018-08-17T18:23:10.296Z,81.70
2018-08-17T18:25:38.536Z,81.60
2018-08-17T18:28:06.765Z,81.30
2018-08-17T18:30:34.988Z,81.20
2018-08-17T18:33:03.203Z,81.30
2018-08-17T18:35:31.415Z,80.80
2018-08-17T18:37:59.637Z,80.70
2018-08-17T18:40:27.853Z,80.50
2018-08-17T18:42:56.104Z,80.30
2018-08-17T18:45:24.342Z,80.10
2018-08-17T18:47:52.566Z,79.90
2018-08-17T18:50:20.786Z,79.50
2018-08-17T18:52:49.088Z,79.50
2018-08-17T18:55:17.313Z,79.20
2018-08-17T18:57:45.548Z,78.70
2018-08-17T19:00:14.277Z,78.30
2018-08-17T19:02:42.629Z,78.10
2018-08-17T19:05:11.284Z,77.70
2018-08-17T19:07:39.820Z,77.50
2018-08-17T19:10:09.079Z,77.00
2018-08-17T19:12:37.506Z,76.60
2018-08-17T19:15:09.705Z,76.10
2018-08-17T19:17:38.013Z,75.70
2018-08-17T19:20:10.074Z,75.20
2018-08-17T19:22:40.231Z,74.70
2018-08-17T19:25:11.190Z,74.10
2018-08-17T19:27:40.265Z,73.40
2018-08-17T19:30:21.079Z,72.70
2018-08-17T19:32:49.412Z,72.10
2018-08-17T19:35:17.978Z,71.60
2018-08-17T19:37:46.200Z,71.10
2018-08-17T19:40:14.417Z,70.50
2018-08-17T19:42:42.617Z,70.00
2018-08-17T19:45:10.869Z,69.50
2018-08-17T19:47:39.122Z,69.00
2018-08-17T19:50:07.359Z,69.70
2018-08-17T19:52:35.545Z,69.00
2018-08-17T19:55:04.103Z,69.10
2018-08-17T19:57:32.342Z,69.00
2018-08-17T20:00:00.597Z,68.70
2018-08-17T20:02:28.834Z,68.40
2018-08-17T20:04:57.041Z,68.20
2018-08-17T20:07:25.254Z,68.00
2018-08-17T20:09:53.477Z,67.80
2018-08-17T20:12:21.736Z,67.60
2018-08-17T20:14:49.945Z,67.50
2018-08-17T20:17:18.161Z,67.50
2018-08-17T20:19:47.222Z,66.90
2018-08-17T20:22:18.807Z,66.50
2018-08-17T20:24:47.317Z,65.80
2018-08-17T20:27:15.832Z,65.80
2018-08-17T20:29:44.157Z,65.80
2018-08-17T20:32:12.431Z,65.60
2018-08-17T20:34:46.653Z,65.30
2018-08-17T20:37:15.767Z,65.20
2018-08-17T20:39:44.957Z,65.20
2018-08-17T20:42:13.231Z,65.20
2018-08-17T20:44:41.428Z,65.20
2018-08-17T20:47:10.457Z,65.50
2018-08-17T20:49:38.693Z,65.60
2018-08-17T20:52:06.928Z,65.90
2018-08-17T20:54:35.165Z,66.10
2018-08-17T20:57:03.405Z,66.60
2018-08-17T20:59:31.610Z,66.30
2018-08-17T21:02:00.061Z,66.20
2018-08-17T21:04:28.276Z,66.30
2018-08-17T21:06:56.515Z,66.60
2018-08-17T21:09:24.770Z,66.80
2018-08-17T21:11:52.990Z,67.00
2018-08-17T21:14:21.212Z,67.20
2018-08-17T21:16:49.442Z,67.10
2018-08-17T21:19:22.078Z,67.00
2018-08-17T21:21:50.320Z,67.00
2018-08-17T21:24:18.536Z,67.00
2018-08-17T21:26:47.782Z,67.00
2018-08-17T21:29:16.110Z,67.10
2018-08-17T21:31:44.237Z,67.20
2018-08-17T21:34:12.868Z,67.20
2018-08-17T21:36:41.110Z,67.00
2018-08-17T21:39:10.544Z,66.90
2018-08-17T21:41:40.063Z,66.70
2018-08-17T21:44:09.420Z,66.60
2018-08-17T21:46:37.640Z,66.50
2018-08-17T21:49:05.970Z,66.60
2018-08-17T21:51:34.700Z,66.80
2018-08-17T21:54:04.114Z,66.70
2018-08-17T21:56:32.346Z,66.70
2018-08-17T21:59:00.570Z,66.70
2018-08-17T22:01:28.797Z,66.60
2018-08-17T22:03:57.017Z,66.30
2018-08-17T22:06:25.250Z,66.20
2018-08-17T22:08:53.485Z,66.00
2018-08-17T22:11:32.413Z,65.90
2018-08-17T22:14:00.628Z,66.10
2018-08-17T22:16:28.853Z,66.40
2018-08-17T22:18:57.078Z,66.40
2018-08-17T22:21:25.840Z,66.40
2018-08-17T22:23:54.150Z,66.30
2018-08-17T22:26:22.646Z,66.00
2018-08-17T22:28:50.942Z,66.10
2018-08-17T22:31:50.945Z,66.10
2018-08-17T22:34:19.221Z,66.10
2018-08-17T22:36:47.420Z,66.20
2018-08-17T22:39:15.657Z,66.50
2018-08-17T22:41:43.941Z,66.70
2018-08-17T22:44:17.405Z,67.00
2018-08-17T22:46:55.727Z,67.10
2018-08-17T22:49:23.950Z,67.00
2018-08-17T22:51:52.214Z,66.90
2018-08-17T22:54:20.418Z,66.70
2018-08-17T22:56:48.652Z,66.40
2018-08-17T22:59:16.861Z,65.90
2018-08-17T23:01:45.078Z,65.50
2018-08-17T23:04:13.433Z,65.10
2018-08-17T23:06:41.767Z,64.60
2018-08-17T23:09:09.939Z,64.30
2018-08-17T23:11:38.305Z,64.10
2018-08-17T23:14:11.990Z,63.90
2018-08-17T23:16:40.226Z,63.70
2018-08-17T23:19:08.425Z,63.50
2018-08-17T23:21:36.633Z,63.50
2018-08-17T23:24:04.962Z,63.60
2018-08-17T23:26:34.173Z,63.60
2018-08-17T23:29:02.434Z,63.80
2018-08-17T23:31:30.654Z,64.00
2018-08-17T23:33:58.922Z,64.30
2018-08-17T23:36:27.432Z,64.50
2018-08-17T23:38:55.768Z,64.60
2018-08-17T23:41:24.066Z,65.10
2018-08-17T23:43:52.203Z,66.00
2018-08-17T23:46:20.452Z,65.60
2018-08-17T23:48:48.656Z,65.80
2018-08-17T23:51:16.977Z,65.90
2018-08-17T23:53:45.262Z,65.90
2018-08-17T23:56:13.474Z,66.00
2018-08-17T23:58:41.728Z,66.10
